createdAt,value
2019-01-31T00:00:29.975Z,927.32
2019-01-31T00:01:29.870Z,927.29
2019-01-31T00:02:29.769Z,927.25
2019-01-31T00:03:29.661Z,927.30
2019-01-31T00:04:29.575Z,927.25
2019-01-31T00:05:29.454Z,927.23
2019-01-31T00:06:29.349Z,927.23
2019-01-31T00:07:29.244Z,927.25
2019-01-31T00:08:29.142Z,927.23
2019-01-31T00:09:29.055Z,927.24
2019-01-31T00:10:28.933Z,927.25
2019-01-31T00:11:28.830Z,927.24
2019-01-31T00:12:28.731Z,927.28
2019-01-31T00:13:28.623Z,927.28
2019-01-31T00:14:28.549Z,927.30
2019-01-31T00:15:28.416Z,927.30
2019-01-31T00:16:28.311Z,927.28
2019-01-31T00:17:28.208Z,927.29
2019-01-31T00:18:28.104Z,927.25
2019-01-31T00:19:28.016Z,927.27
2019-01-31T00:20:27.897Z,927.26
2019-01-31T00:21:27.791Z,927.24
2019-01-31T00:22:27.689Z,927.25
2019-01-31T00:23:27.586Z,927.22
2019-01-31T00:24:27.496Z,927.24
2019-01-31T00:25:27.376Z,927.28
2019-01-31T00:26:27.271Z,927.23
2019-01-31T00:27:27.168Z,927.25
2019-01-31T00:28:27.063Z,927.31
2019-01-31T00:29:27.372Z,927.25
2019-01-31T00:30:26.872Z,927.27
2019-01-31T00:31:26.752Z,927.29
2019-01-31T00:32:26.651Z,927.31
2019-01-31T00:33:26.544Z,927.27
2019-01-31T00:34:26.447Z,927.30
2019-01-31T00:35:26.356Z,927.27
2019-01-31T00:36:26.338Z,927.27
2019-01-31T00:37:26.126Z,927.29
2019-01-31T00:38:26.026Z,927.29
2019-01-31T00:39:25.924Z,927.29
2019-01-31T00:40:25.831Z,927.28
2019-01-31T00:41:25.714Z,927.30
2019-01-31T00:42:25.607Z,927.29
2019-01-31T00:43:25.607Z,927.32
2019-01-31T00:44:25.509Z,927.34
2019-01-31T00:45:25.310Z,927.33
2019-01-31T00:46:25.194Z,927.33
2019-01-31T00:47:25.089Z,927.33
2019-01-31T00:48:24.985Z,927.36
2019-01-31T00:49:24.883Z,927.34
2019-01-31T00:50:24.895Z,927.39
2019-01-31T00:51:24.670Z,927.37
2019-01-31T00:52:24.568Z,927.43
2019-01-31T00:53:24.463Z,927.40
2019-01-31T00:54:24.357Z,927.37
2019-01-31T00:55:24.377Z,927.41
2019-01-31T00:56:24.147Z,927.37
2019-01-31T00:57:24.150Z,927.38
2019-01-31T00:58:23.941Z,927.41
2019-01-31T00:59:23.841Z,927.41
2019-01-31T01:00:23.751Z,927.42
2019-01-31T01:01:23.630Z,927.40
2019-01-31T01:02:23.527Z,927.42
2019-01-31T01:03:23.423Z,927.44
2019-01-31T01:04:23.423Z,927.43
2019-01-31T01:05:23.227Z,927.44
2019-01-31T01:06:23.111Z,927.47
2019-01-31T01:07:23.006Z,927.46
2019-01-31T01:08:22.905Z,927.50
2019-01-31T01:09:22.796Z,927.47
2019-01-31T01:10:22.708Z,927.46
2019-01-31T01:11:22.696Z,927.53
2019-01-31T01:12:22.488Z,927.54
2019-01-31T01:13:22.378Z,927.53
2019-01-31T01:14:22.291Z,927.55
2019-01-31T01:15:22.190Z,927.51
2019-01-31T01:16:22.067Z,927.49
2019-01-31T01:17:21.963Z,927.50
2019-01-31T01:18:21.979Z,927.55
2019-01-31T01:19:21.758Z,927.52
2019-01-31T01:20:21.675Z,927.51
2019-01-31T01:21:21.547Z,927.51
2019-01-31T01:22:21.446Z,927.53
2019-01-31T01:23:21.341Z,927.50
2019-01-31T01:24:21.234Z,927.52
2019-01-31T01:25:21.257Z,927.51
2019-01-31T01:26:21.029Z,927.53
2019-01-31T01:27:20.924Z,927.56
2019-01-31T01:28:20.818Z,927.54
2019-01-31T01:29:20.714Z,927.56
2019-01-31T01:30:20.627Z,927.55
2019-01-31T01:31:20.610Z,927.57
2019-01-31T01:32:20.407Z,927.56
2019-01-31T01:33:20.297Z,927.61
2019-01-31T01:34:20.196Z,927.54
2019-01-31T01:35:20.114Z,927.56
2019-01-31T01:36:19.987Z,927.52
2019-01-31T01:37:19.882Z,927.54
2019-01-31T01:38:19.777Z,927.59
2019-01-31T01:39:19.779Z,927.57
2019-01-31T01:40:19.587Z,927.56
2019-01-31T01:41:19.468Z,927.58
2019-01-31T01:42:19.362Z,927.55
2019-01-31T01:43:19.259Z,927.55
2019-01-31T01:44:19.157Z,927.56
2019-01-31T01:45:19.064Z,927.54
2019-01-31T01:46:18.945Z,927.52
2019-01-31T01:47:18.845Z,927.53
2019-01-31T01:48:18.793Z,927.50
2019-01-31T01:49:18.633Z,927.50
2019-01-31T01:50:18.548Z,927.50
2019-01-31T01:51:18.428Z,927.46
2019-01-31T01:52:18.327Z,927.48
2019-01-31T01:53:18.218Z,927.48
2019-01-31T01:54:18.113Z,927.48
2019-01-31T01:55:18.023Z,927.44
2019-01-31T01:56:17.907Z,927.45
2019-01-31T01:57:17.800Z,927.41
2019-01-31T01:58:17.695Z,927.44
2019-01-31T01:59:17.594Z,927.42
2019-01-31T02:00:17.611Z,927.45
2019-01-31T02:01:17.501Z,927.42
2019-01-31T02:02:17.282Z,927.39
2019-01-31T02:03:17.177Z,927.44
2019-01-31T02:04:17.073Z,927.40
2019-01-31T02:05:16.983Z,927.40
2019-01-31T02:06:16.992Z,927.37
2019-01-31T02:07:16.760Z,927.39
2019-01-31T02:08:16.655Z,927.37
2019-01-31T02:09:16.552Z,927.39
2019-01-31T02:10:16.448Z,927.39
2019-01-31T02:11:16.362Z,927.37
2019-01-31T02:12:16.239Z,927.36
2019-01-31T02:13:16.135Z,927.35
2019-01-31T02:14:16.031Z,927.37
2019-01-31T02:15:15.943Z,927.30
2019-01-31T02:16:15.823Z,927.36
2019-01-31T02:17:15.718Z,927.34
2019-01-31T02:18:15.617Z,927.36
2019-01-31T02:19:15.514Z,927.30
2019-01-31T02:20:15.412Z,927.32
2019-01-31T02:21:15.320Z,927.36
2019-01-31T02:22:15.198Z,927.33
2019-01-31T02:23:15.186Z,927.35
2019-01-31T02:24:14.992Z,927.37
2019-01-31T02:25:14.888Z,927.31
2019-01-31T02:26:14.798Z,927.34
2019-01-31T02:27:14.679Z,927.36
2019-01-31T02:28:14.577Z,927.35
2019-01-31T02:29:14.472Z,927.41
2019-01-31T02:30:14.370Z,927.41
2019-01-31T02:31:14.278Z,927.41
2019-01-31T02:32:14.157Z,927.40
2019-01-31T02:33:14.052Z,927.43
2019-01-31T02:34:13.949Z,927.42
2019-01-31T02:35:13.850Z,927.41
2019-01-31T02:36:13.758Z,927.36
2019-01-31T02:37:13.640Z,927.39
2019-01-31T02:38:13.539Z,927.35
2019-01-31T02:39:13.428Z,927.37
2019-01-31T02:40:13.324Z,927.39
2019-01-31T02:41:13.257Z,927.38
2019-01-31T02:42:13.116Z,927.38
2019-01-31T02:43:13.018Z,927.34
2019-01-31T02:44:12.908Z,927.33
2019-01-31T02:45:12.805Z,927.35
2019-01-31T02:46:12.724Z,927.30
2019-01-31T02:47:12.599Z,927.28
2019-01-31T02:48:12.491Z,927.34
2019-01-31T02:49:12.384Z,927.33
2019-01-31T02:50:12.311Z,927.29
2019-01-31T02:51:12.194Z,927.29
2019-01-31T02:52:12.072Z,927.29
2019-01-31T02:53:11.970Z,927.30
2019-01-31T02:54:11.866Z,927.32
2019-01-31T02:55:11.766Z,927.31
2019-01-31T02:56:11.673Z,927.31
2019-01-31T02:57:11.553Z,927.32
2019-01-31T02:58:11.450Z,927.32
2019-01-31T02:59:11.343Z,927.28
2019-01-31T03:00:11.240Z,927.31
2019-01-31T03:01:11.151Z,927.35
2019-01-31T03:02:11.030Z,927.30
2019-01-31T03:03:10.925Z,927.30
2019-01-31T03:04:10.825Z,927.32
2019-01-31T03:05:10.723Z,927.31
2019-01-31T03:06:10.629Z,927.29
2019-01-31T03:07:10.514Z,927.29
2019-01-31T03:08:11.043Z,927.29
2019-01-31T03:09:10.303Z,927.35
2019-01-31T03:10:10.197Z,927.33
2019-01-31T03:11:10.110Z,927.33
2019-01-31T03:12:09.994Z,927.32
2019-01-31T03:13:09.893Z,927.33
2019-01-31T03:14:10.642Z,927.35
2019-01-31T03:15:09.675Z,927.40
2019-01-31T03:16:09.589Z,927.36
2019-01-31T03:17:09.466Z,927.37
2019-01-31T03:18:09.362Z,927.42
2019-01-31T03:19:09.261Z,927.39
2019-01-31T03:20:09.155Z,927.38
2019-01-31T03:21:09.069Z,927.38
2019-01-31T03:22:08.944Z,927.36
2019-01-31T03:23:08.943Z,927.33
2019-01-31T03:24:08.741Z,927.34
2019-01-31T03:25:08.635Z,927.38
2019-01-31T03:26:08.546Z,927.35
2019-01-31T03:27:08.429Z,927.35
2019-01-31T03:28:08.328Z,927.36
2019-01-31T03:29:08.218Z,927.33
2019-01-31T03:30:08.219Z,927.36
2019-01-31T03:31:08.027Z,927.25
2019-01-31T03:32:07.925Z,927.29
2019-01-31T03:33:07.803Z,927.31
2019-01-31T03:34:07.696Z,927.33
2019-01-31T03:35:07.590Z,927.28
2019-01-31T03:36:07.505Z,927.31
2019-01-31T03:37:07.489Z,927.33
2019-01-31T03:38:07.279Z,927.34
2019-01-31T03:39:07.175Z,927.34
2019-01-31T03:40:07.596Z,927.34
2019-01-31T03:41:06.983Z,927.33
2019-01-31T03:42:06.862Z,927.34
2019-01-31T03:43:06.756Z,927.37
2019-01-31T03:44:06.755Z,927.37
2019-01-31T03:45:06.548Z,927.37
2019-01-31T03:46:06.460Z,927.35
2019-01-31T03:47:06.340Z,927.34
2019-01-31T03:48:06.233Z,927.33
2019-01-31T03:49:06.129Z,927.32
2019-01-31T03:50:06.922Z,927.32
2019-01-31T03:51:06.042Z,927.36
2019-01-31T03:52:05.816Z,927.30
2019-01-31T03:53:05.716Z,927.35
2019-01-31T03:54:05.609Z,927.32
2019-01-31T03:55:05.501Z,927.35
2019-01-31T03:56:05.402Z,927.35
2019-01-31T03:57:05.310Z,927.34
2019-01-31T03:58:05.290Z,927.39
2019-01-31T03:59:05.090Z,927.37
2019-01-31T04:00:04.982Z,927.38
2019-01-31T04:01:04.885Z,927.38
2019-01-31T04:02:04.787Z,927.37
2019-01-31T04:03:04.667Z,927.38
2019-01-31T04:04:04.563Z,927.42
2019-01-31T04:05:04.562Z,927.41
2019-01-31T04:06:04.359Z,927.46
2019-01-31T04:07:04.268Z,927.44
2019-01-31T04:08:04.150Z,927.39
2019-01-31T04:09:04.040Z,927.41
2019-01-31T04:10:03.935Z,927.41
2019-01-31T04:11:03.831Z,927.46
2019-01-31T04:12:03.849Z,927.43
2019-01-31T04:13:03.622Z,927.42
2019-01-31T04:14:03.516Z,927.40
2019-01-31T04:15:03.413Z,927.44
2019-01-31T04:16:03.314Z,927.42
2019-01-31T04:17:03.221Z,927.39
2019-01-31T04:18:03.100Z,927.41
2019-01-31T04:19:03.103Z,927.40
2019-01-31T04:20:03.022Z,927.44
2019-01-31T04:21:02.785Z,927.42
2019-01-31T04:22:02.698Z,927.40
2019-01-31T04:23:02.577Z,927.43
2019-01-31T04:24:02.472Z,927.39
2019-01-31T04:25:02.374Z,927.43
2019-01-31T04:26:02.369Z,927.40
2019-01-31T04:27:02.175Z,927.46
2019-01-31T04:28:02.055Z,927.42
2019-01-31T04:29:01.953Z,927.39
2019-01-31T04:30:01.865Z,927.38
2019-01-31T04:31:01.741Z,927.41
2019-01-31T04:32:01.654Z,927.38
2019-01-31T04:33:01.532Z,927.35
2019-01-31T04:34:01.429Z,927.36
2019-01-31T04:35:01.326Z,927.42
2019-01-31T04:36:01.221Z,927.40
2019-01-31T04:37:01.131Z,927.42
2019-01-31T04:38:01.011Z,927.45
2019-01-31T04:39:00.919Z,927.42
2019-01-31T04:40:00.921Z,927.43
2019-01-31T04:41:00.705Z,927.44
2019-01-31T04:42:00.609Z,927.43
2019-01-31T04:43:00.489Z,927.37
2019-01-31T04:44:00.385Z,927.43
2019-01-31T04:45:00.356Z,927.45
2019-01-31T04:46:00.176Z,927.38
2019-01-31T04:47:00.091Z,927.41
2019-01-31T04:47:59.965Z,927.42
2019-01-31T04:48:59.862Z,927.41
2019-01-31T04:49:59.758Z,927.44
2019-01-31T04:50:59.654Z,927.42
2019-01-31T04:51:59.573Z,927.43
2019-01-31T04:52:59.447Z,927.42
2019-01-31T04:53:59.340Z,927.38
2019-01-31T04:54:59.235Z,927.37
2019-01-31T04:55:59.136Z,927.35
2019-01-31T04:56:59.071Z,927.35
2019-01-31T04:57:58.926Z,927.34
2019-01-31T04:58:58.821Z,927.35
2019-01-31T04:59:58.715Z,927.30
2019-01-31T05:00:58.609Z,927.34
2019-01-31T05:01:58.522Z,927.33
2019-01-31T05:02:58.402Z,927.33
2019-01-31T05:03:58.302Z,927.32
2019-01-31T05:04:58.194Z,927.27
2019-01-31T05:05:58.089Z,927.29
2019-01-31T05:06:58.005Z,927.27
2019-01-31T05:07:57.883Z,927.27
2019-01-31T05:08:57.775Z,927.26
2019-01-31T05:09:57.676Z,927.28
2019-01-31T05:10:57.571Z,927.29
2019-01-31T05:11:57.485Z,927.32
2019-01-31T05:12:57.357Z,927.31
2019-01-31T05:13:57.256Z,927.32
2019-01-31T05:14:57.153Z,927.33
2019-01-31T05:15:57.055Z,927.35
2019-01-31T05:16:56.957Z,927.35
2019-01-31T05:17:56.836Z,927.37
2019-01-31T05:18:56.732Z,927.37
2019-01-31T05:19:56.637Z,927.38
2019-01-31T05:20:56.525Z,927.34
2019-01-31T05:21:56.447Z,927.35
2019-01-31T05:22:56.315Z,927.37
2019-01-31T05:23:56.225Z,927.38
2019-01-31T05:24:56.109Z,927.40
2019-01-31T05:25:56.004Z,927.45
2019-01-31T05:26:55.913Z,927.38
2019-01-31T05:27:55.830Z,927.47
2019-01-31T05:28:55.688Z,927.39
2019-01-31T05:29:55.591Z,927.44
2019-01-31T05:30:55.581Z,927.43
2019-01-31T05:31:55.394Z,927.45
2019-01-31T05:32:55.269Z,927.46
2019-01-31T05:33:55.169Z,927.45
2019-01-31T05:34:55.062Z,927.45
2019-01-31T05:35:54.957Z,927.43
2019-01-31T05:36:54.868Z,927.44
2019-01-31T05:37:54.749Z,927.43
2019-01-31T05:38:54.651Z,927.45
2019-01-31T05:39:54.540Z,927.43
2019-01-31T05:40:55.733Z,927.48
2019-01-31T05:41:54.331Z,927.47
2019-01-31T05:42:54.250Z,927.47
2019-01-31T05:43:54.122Z,927.46
2019-01-31T05:44:54.019Z,927.44
2019-01-31T05:45:53.988Z,927.43
2019-01-31T05:46:53.810Z,927.46
2019-01-31T05:47:53.723Z,927.43
2019-01-31T05:48:53.607Z,927.46
2019-01-31T05:49:53.500Z,927.48
2019-01-31T05:50:53.396Z,927.46
2019-01-31T05:51:53.290Z,927.46
2019-01-31T05:52:53.285Z,927.44
2019-01-31T05:53:53.078Z,927.45
2019-01-31T05:54:52.979Z,927.43
2019-01-31T05:55:52.871Z,927.41
2019-01-31T05:56:52.765Z,927.41
2019-01-31T05:57:52.675Z,927.39
2019-01-31T05:58:52.555Z,927.38
2019-01-31T05:59:52.452Z,927.38
2019-01-31T06:00:52.346Z,927.39
2019-01-31T06:01:52.250Z,927.37
2019-01-31T06:02:52.150Z,927.42
2019-01-31T06:03:52.031Z,927.39
2019-01-31T06:04:53.851Z,927.37
2019-01-31T06:05:51.822Z,927.36
2019-01-31T06:06:51.720Z,927.36
2019-01-31T06:07:51.630Z,927.38
2019-01-31T06:08:51.508Z,927.35
2019-01-31T06:09:51.404Z,927.38
2019-01-31T06:10:51.299Z,927.40
2019-01-31T06:11:51.193Z,927.35
2019-01-31T06:12:51.106Z,927.39
2019-01-31T06:13:50.985Z,927.37
2019-01-31T06:14:50.878Z,927.36
2019-01-31T06:15:50.783Z,927.39
2019-01-31T06:16:50.670Z,927.41
2019-01-31T06:17:50.580Z,927.44
2019-01-31T06:18:50.468Z,927.42
2019-01-31T06:19:50.354Z,927.38
2019-01-31T06:20:50.251Z,927.37
2019-01-31T06:21:50.146Z,927.41
2019-01-31T06:22:50.055Z,927.37
2019-01-31T06:23:49.933Z,927.40
2019-01-31T06:24:49.935Z,927.38
2019-01-31T06:25:49.721Z,927.39
2019-01-31T06:26:49.618Z,927.41
2019-01-31T06:27:49.527Z,927.40
2019-01-31T06:28:49.406Z,927.39
2019-01-31T06:29:49.300Z,927.40
2019-01-31T06:30:49.200Z,927.40
2019-01-31T06:31:49.193Z,927.36
2019-01-31T06:32:48.998Z,927.39
2019-01-31T06:33:48.878Z,927.39
2019-01-31T06:34:48.775Z,927.42
2019-01-31T06:35:48.667Z,927.53
2019-01-31T06:36:48.562Z,927.51
2019-01-31T06:37:48.493Z,927.55
2019-01-31T06:38:48.450Z,927.54
2019-01-31T06:39:48.246Z,927.53
2019-01-31T06:40:48.140Z,927.55
2019-01-31T06:41:48.033Z,927.53
2019-01-31T06:42:47.946Z,927.53
2019-01-31T06:43:47.821Z,927.51
2019-01-31T06:44:47.714Z,927.52
2019-01-31T06:45:47.723Z,927.56
2019-01-31T06:46:47.506Z,927.56
2019-01-31T06:47:47.413Z,927.58
2019-01-31T06:48:47.292Z,927.60
2019-01-31T06:49:47.189Z,927.59
2019-01-31T06:50:47.080Z,927.61
2019-01-31T06:51:46.976Z,927.61
2019-01-31T06:52:46.987Z,927.58
2019-01-31T06:53:46.764Z,927.53
2019-01-31T06:54:46.656Z,927.60
2019-01-31T06:55:46.552Z,927.59
2019-01-31T06:56:46.444Z,927.59
2019-01-31T06:57:46.354Z,927.62
2019-01-31T06:58:46.236Z,927.58
2019-01-31T06:59:46.234Z,927.59
2019-01-31T07:00:46.023Z,927.60
2019-01-31T07:01:45.915Z,927.62
2019-01-31T07:02:45.824Z,927.62
2019-01-31T07:03:45.703Z,927.64
2019-01-31T07:04:45.598Z,927.68
2019-01-31T07:05:45.492Z,927.68
2019-01-31T07:06:45.493Z,927.66
2019-01-31T07:07:45.296Z,927.69
2019-01-31T07:08:45.172Z,927.70
2019-01-31T07:09:45.065Z,927.68
2019-01-31T07:10:44.960Z,927.70
2019-01-31T07:11:44.966Z,927.69
2019-01-31T07:12:44.762Z,927.72
2019-01-31T07:13:44.770Z,927.71
2019-01-31T07:14:44.535Z,927.74
2019-01-31T07:15:44.428Z,927.72
2019-01-31T07:16:44.321Z,927.80
2019-01-31T07:17:44.231Z,927.75
2019-01-31T07:18:44.110Z,927.72
2019-01-31T07:19:44.004Z,927.71
2019-01-31T07:20:43.997Z,927.77
2019-01-31T07:21:43.791Z,927.78
2019-01-31T07:22:43.703Z,927.72
2019-01-31T07:23:45.927Z,927.71
2019-01-31T07:24:43.474Z,927.75
2019-01-31T07:25:43.367Z,927.76
2019-01-31T07:26:43.260Z,927.75
2019-01-31T07:27:43.261Z,927.79
2019-01-31T07:28:43.065Z,927.78
2019-01-31T07:29:42.941Z,927.78
2019-01-31T07:30:42.836Z,927.78
2019-01-31T07:31:42.728Z,927.78
2019-01-31T07:32:42.623Z,927.78
2019-01-31T07:33:42.638Z,927.76
2019-01-31T07:34:42.412Z,927.77
2019-01-31T07:35:42.304Z,927.71
2019-01-31T07:36:42.197Z,927.71
2019-01-31T07:37:42.093Z,927.73
2019-01-31T07:38:42.007Z,927.76
2019-01-31T07:39:41.879Z,927.69
2019-01-31T07:40:41.772Z,927.75
2019-01-31T07:41:41.849Z,927.80
2019-01-31T07:42:41.563Z,927.80
2019-01-31T07:43:41.472Z,927.88
2019-01-31T07:44:41.351Z,927.86
2019-01-31T07:45:41.242Z,927.81
2019-01-31T07:46:41.197Z,927.87
2019-01-31T07:47:41.033Z,927.91
2019-01-31T07:48:40.941Z,927.98
2019-01-31T07:49:40.818Z,928.02
2019-01-31T07:50:40.713Z,928.00
2019-01-31T07:51:40.610Z,928.03
2019-01-31T07:52:40.502Z,928.04
2019-01-31T07:53:40.412Z,928.08
2019-01-31T07:54:40.292Z,928.09
2019-01-31T07:55:40.186Z,928.08
2019-01-31T07:56:40.080Z,928.12
2019-01-31T07:57:39.979Z,928.15
2019-01-31T07:58:39.897Z,928.15
2019-01-31T07:59:39.774Z,928.12
2019-01-31T08:00:39.665Z,928.16
2019-01-31T08:01:40.854Z,928.15
2019-01-31T08:02:39.458Z,928.20
2019-01-31T08:03:40.778Z,928.23
2019-01-31T08:04:39.249Z,928.25
2019-01-31T08:05:39.151Z,928.24
2019-01-31T08:06:39.045Z,928.30
2019-01-31T08:07:38.941Z,928.28
2019-01-31T08:08:38.855Z,928.22
2019-01-31T08:09:38.738Z,928.30
2019-01-31T08:10:38.637Z,928.28
2019-01-31T08:11:38.534Z,928.26
2019-01-31T08:12:38.434Z,928.30
2019-01-31T08:13:38.344Z,928.31
2019-01-31T08:14:38.229Z,928.33
2019-01-31T08:15:38.129Z,928.32
2019-01-31T08:16:38.025Z,928.32
2019-01-31T08:17:37.924Z,928.34
2019-01-31T08:18:37.844Z,928.31
2019-01-31T08:19:37.724Z,928.31
2019-01-31T08:20:37.623Z,928.30
2019-01-31T08:21:37.525Z,928.31
2019-01-31T08:22:37.420Z,928.33
2019-01-31T08:23:37.337Z,928.37
2019-01-31T08:24:37.220Z,928.40
2019-01-31T08:25:37.125Z,928.37
2019-01-31T08:26:37.022Z,928.40
2019-01-31T08:27:36.927Z,928.42
2019-01-31T08:28:36.838Z,928.43
2019-01-31T08:29:36.723Z,928.43
2019-01-31T08:30:37.881Z,928.48
2019-01-31T08:31:36.527Z,928.42
2019-01-31T08:32:36.427Z,928.39
2019-01-31T08:33:36.345Z,928.44
2019-01-31T08:34:36.229Z,928.47
2019-01-31T08:35:36.136Z,928.46
2019-01-31T08:36:36.037Z,928.48
2019-01-31T08:37:35.937Z,928.43
2019-01-31T08:38:36.781Z,928.43
2019-01-31T08:39:35.741Z,928.44
2019-01-31T08:40:35.662Z,928.51
2019-01-31T08:41:35.543Z,928.44
2019-01-31T08:42:35.447Z,928.46
2019-01-31T08:43:35.367Z,928.48
2019-01-31T08:44:35.252Z,928.55
2019-01-31T08:45:35.155Z,928.52
2019-01-31T08:46:35.061Z,928.52
2019-01-31T08:47:34.974Z,928.59
2019-01-31T08:48:34.884Z,928.60
2019-01-31T08:49:34.764Z,928.60
2019-01-31T08:50:34.669Z,928.62
2019-01-31T08:51:34.571Z,928.60
2019-01-31T08:52:34.476Z,928.63
2019-01-31T08:53:34.396Z,928.66
2019-01-31T08:54:34.283Z,928.64
2019-01-31T08:55:34.212Z,928.67
2019-01-31T08:56:34.092Z,928.77
2019-01-31T08:57:33.994Z,928.65
2019-01-31T08:58:33.915Z,928.69
2019-01-31T08:59:33.804Z,928.73
2019-01-31T09:00:33.707Z,928.72
2019-01-31T09:01:33.609Z,928.73
2019-01-31T09:02:33.514Z,928.71
2019-01-31T09:03:33.437Z,928.73
2019-01-31T09:04:33.427Z,928.68
2019-01-31T09:05:33.229Z,928.78
2019-01-31T09:06:33.146Z,928.67
2019-01-31T09:07:33.043Z,928.76
2019-01-31T09:08:32.957Z,928.75
2019-01-31T09:09:32.844Z,928.73
2019-01-31T09:10:32.751Z,928.74
2019-01-31T09:11:32.764Z,928.74
2019-01-31T09:12:32.561Z,928.74
2019-01-31T09:13:32.467Z,928.74
2019-01-31T09:14:32.386Z,928.76
2019-01-31T09:15:32.277Z,928.76
2019-01-31T09:16:32.210Z,928.78
2019-01-31T09:17:32.084Z,928.82
2019-01-31T09:18:32.093Z,928.77
2019-01-31T09:19:31.909Z,928.81
2019-01-31T09:20:31.799Z,928.86
2019-01-31T09:21:31.704Z,928.82
2019-01-31T09:22:31.609Z,928.84
2019-01-31T09:23:31.531Z,928.86
2019-01-31T09:24:31.435Z,928.87
2019-01-31T09:25:31.429Z,928.87
2019-01-31T09:26:31.234Z,928.86
2019-01-31T09:27:31.140Z,928.84
2019-01-31T09:28:31.046Z,928.84
2019-01-31T09:29:30.967Z,928.92
2019-01-31T09:30:30.856Z,928.88
2019-01-31T09:31:30.766Z,928.94
2019-01-31T09:32:30.767Z,928.93
2019-01-31T09:33:30.573Z,928.88
2019-01-31T09:34:30.504Z,928.89
2019-01-31T09:35:30.384Z,928.96
2019-01-31T09:36:30.310Z,928.96
2019-01-31T09:37:30.198Z,928.99
2019-01-31T09:38:30.104Z,929.01
2019-01-31T09:39:30.128Z,928.97
2019-01-31T09:40:29.916Z,929.04
2019-01-31T09:41:29.823Z,929.00
2019-01-31T09:42:29.729Z,928.98
2019-01-31T09:43:29.638Z,929.06
2019-01-31T09:44:29.556Z,929.05
2019-01-31T09:45:29.449Z,929.07
2019-01-31T09:46:29.466Z,929.11
2019-01-31T09:47:31.646Z,929.06
2019-01-31T09:48:29.166Z,929.06
2019-01-31T09:49:29.088Z,929.00
2019-01-31T09:50:28.979Z,929.18
2019-01-31T09:51:28.885Z,929.12
2019-01-31T09:52:28.787Z,929.10
2019-01-31T09:53:28.796Z,929.06
2019-01-31T09:54:28.619Z,929.05
2019-01-31T09:55:28.510Z,929.08
2019-01-31T09:56:28.412Z,929.15
2019-01-31T09:57:28.319Z,929.13
2019-01-31T09:58:28.343Z,929.07
2019-01-31T09:59:28.148Z,929.05
2019-01-31T10:00:28.142Z,929.10
2019-01-31T10:01:27.944Z,929.02
2019-01-31T10:02:27.846Z,929.08
2019-01-31T10:03:27.754Z,929.06
2019-01-31T10:04:27.673Z,929.01
2019-01-31T10:05:27.567Z,928.99
2019-01-31T10:06:27.501Z,929.03
2019-01-31T10:07:27.493Z,928.98
2019-01-31T10:08:27.282Z,929.01
2019-01-31T10:09:27.203Z,928.99
2019-01-31T10:10:27.161Z,928.96
2019-01-31T10:11:27.000Z,929.05
2019-01-31T10:12:37.579Z,929.00
2019-01-31T10:13:26.810Z,929.02
2019-01-31T10:14:26.842Z,929.04
2019-01-31T10:15:26.701Z,929.02
2019-01-31T10:16:26.532Z,929.00
2019-01-31T10:17:26.514Z,928.99
2019-01-31T10:18:26.432Z,929.02
2019-01-31T10:19:26.309Z,928.97
2019-01-31T10:20:26.325Z,929.02
2019-01-31T10:21:26.181Z,929.01
2019-01-31T10:22:26.034Z,928.98
2019-01-31T10:23:25.880Z,928.89
2019-01-31T10:24:25.800Z,928.96
2019-01-31T10:25:25.745Z,928.93
2019-01-31T10:26:25.611Z,928.95
2019-01-31T10:27:25.505Z,928.93
2019-01-31T10:28:25.414Z,928.97
2019-01-31T10:29:25.335Z,928.97
2019-01-31T10:30:25.234Z,928.93
2019-01-31T10:31:25.149Z,928.96
2019-01-31T10:32:25.042Z,928.92
2019-01-31T10:33:24.951Z,928.86
2019-01-31T10:34:24.877Z,928.99
2019-01-31T10:35:24.768Z,928.90
2019-01-31T10:36:24.672Z,928.86
2019-01-31T10:37:24.579Z,928.94
2019-01-31T10:38:24.488Z,929.01
2019-01-31T10:39:24.412Z,929.04
2019-01-31T10:40:24.303Z,929.06
2019-01-31T10:41:24.210Z,929.06
2019-01-31T10:42:24.120Z,929.21
2019-01-31T10:43:24.029Z,929.14
2019-01-31T10:44:23.951Z,929.13
2019-01-31T10:45:24.706Z,929.10
2019-01-31T10:46:23.748Z,929.08
2019-01-31T10:47:23.654Z,929.16
2019-01-31T10:48:23.563Z,929.23
2019-01-31T10:49:23.486Z,929.22
2019-01-31T10:50:23.377Z,929.31
2019-01-31T10:51:23.285Z,929.38
2019-01-31T10:52:23.194Z,929.28
2019-01-31T10:53:23.107Z,929.27
2019-01-31T10:54:23.023Z,929.29
2019-01-31T10:55:22.918Z,929.28
2019-01-31T10:56:22.824Z,929.32
2019-01-31T10:57:22.730Z,929.28
2019-01-31T10:58:22.635Z,929.26
2019-01-31T10:59:22.546Z,929.30
2019-01-31T11:00:22.471Z,929.33
2019-01-31T11:01:22.365Z,929.39
2019-01-31T11:02:22.266Z,929.33
2019-01-31T11:03:22.174Z,929.33
2019-01-31T11:04:22.088Z,929.29
2019-01-31T11:05:22.006Z,929.26
2019-01-31T11:06:21.898Z,929.28
2019-01-31T11:07:21.804Z,929.18
2019-01-31T11:08:21.721Z,929.11
2019-01-31T11:09:21.623Z,929.21
2019-01-31T11:10:21.543Z,929.16
2019-01-31T11:11:21.434Z,929.10
2019-01-31T11:12:21.343Z,929.12
2019-01-31T11:13:21.249Z,929.23
2019-01-31T11:14:21.159Z,929.14
2019-01-31T11:15:21.079Z,928.98
2019-01-31T11:16:21.082Z,929.18
2019-01-31T11:17:20.879Z,929.17
2019-01-31T11:18:20.784Z,929.31
2019-01-31T11:19:20.697Z,929.28
2019-01-31T11:20:20.616Z,929.27
2019-01-31T11:21:20.507Z,929.49
2019-01-31T11:22:20.416Z,929.49
2019-01-31T11:23:20.323Z,929.44
2019-01-31T11:24:20.229Z,929.19
2019-01-31T11:25:20.157Z,929.29
2019-01-31T11:26:20.046Z,929.18
2019-01-31T11:27:19.952Z,929.01
2019-01-31T11:28:19.873Z,928.99
2019-01-31T11:29:19.764Z,929.25
2019-01-31T11:30:19.693Z,929.12
2019-01-31T11:31:19.582Z,929.26
2019-01-31T11:32:19.487Z,929.20
2019-01-31T11:33:19.396Z,929.09
2019-01-31T11:34:19.301Z,929.13
2019-01-31T11:35:19.227Z,928.96
2019-01-31T11:36:19.117Z,928.83
2019-01-31T11:37:19.025Z,928.68
2019-01-31T11:38:18.929Z,928.72
2019-01-31T11:39:18.836Z,928.68
2019-01-31T11:40:18.760Z,928.52
2019-01-31T11:41:18.649Z,928.46
2019-01-31T11:42:18.557Z,928.48
2019-01-31T11:43:18.465Z,928.47
2019-01-31T11:44:18.371Z,928.42
2019-01-31T11:45:18.297Z,928.38
2019-01-31T11:46:18.186Z,928.40
2019-01-31T11:47:18.089Z,928.43
2019-01-31T11:48:17.997Z,928.40
2019-01-31T11:49:17.904Z,928.38
2019-01-31T11:50:17.852Z,928.35
2019-01-31T11:51:17.822Z,928.34
2019-01-31T11:52:17.626Z,928.31
2019-01-31T11:53:17.531Z,928.24
2019-01-31T11:54:17.437Z,928.23
2019-01-31T11:55:17.361Z,928.29
2019-01-31T11:56:17.248Z,928.27
2019-01-31T11:57:17.156Z,928.30
2019-01-31T11:58:17.067Z,928.28
2019-01-31T11:59:17.062Z,928.29
2019-01-31T12:00:16.889Z,928.23
2019-01-31T12:01:16.780Z,928.21
2019-01-31T12:02:16.683Z,928.25
2019-01-31T12:03:16.593Z,928.22
2019-01-31T12:04:16.496Z,928.20
2019-01-31T12:05:16.416Z,928.21
2019-01-31T12:06:16.597Z,928.16
2019-01-31T12:07:16.211Z,928.15
2019-01-31T12:08:16.114Z,928.10
2019-01-31T12:09:16.021Z,928.15
2019-01-31T12:10:15.941Z,928.15
2019-01-31T12:11:15.829Z,928.13
2019-01-31T12:12:15.733Z,928.09
2019-01-31T12:13:23.374Z,928.10
2019-01-31T12:14:15.543Z,928.08
2019-01-31T12:15:15.469Z,928.17
2019-01-31T12:16:15.353Z,928.10
2019-01-31T12:17:15.258Z,928.07
2019-01-31T12:18:15.161Z,928.02
2019-01-31T12:19:15.076Z,928.01
2019-01-31T12:20:15.105Z,928.04
2019-01-31T12:21:14.874Z,928.04
2019-01-31T12:22:14.781Z,928.07
2019-01-31T12:23:14.683Z,928.02
2019-01-31T12:24:16.503Z,928.05
2019-01-31T12:25:14.512Z,928.05
2019-01-31T12:26:14.398Z,928.08
2019-01-31T12:27:14.401Z,928.05